Fairbanks, AK

10:39 AM AKDT on March 27, 2017 (GMT -0800)
200 Slater Dr. | | Change Station

Elev 450 ft 64.84 °N, 147.70 °W | Updated 8 seconds ago

Clear
Clear
14.5 °F
Feels Like 14 °F
N
0.0
Wind Variable Wind from NE
Gusts 0.0 mph

Today
High -- | Low -- °F
--% Chance of Precip.
Yesterday
High -- | Low -- °F
Precip. -- in
Pressure 29.71 in
Visibility 10.0 miles
Clouds Clear
Windchill 14 °F
Dew Point 4 °F
Humidity 62%
Rainfall 0.02 in
Snow Depth Not available.
7:23 AM 8:29 PM
Waning Crescent, 0% visible
METAR PAFB 271758Z COR 00000KT 10SM CLR M12/M19 A2967 RMK AO2A SLP059 4/030 T11231192 11123 21242 57014 $ COR 1803
Pressure 29.71 in
Visibility 10.0 miles
Clouds Clear
Windchill 14 °F
Dew Point 4 °F
Humidity 62%
Rainfall 0.02 in
Snow Depth Not available.
7:23 AM 8:29 PM
Waning Crescent, 0% visible
METAR PAFB 271758Z COR 00000KT 10SM CLR M12/M19 A2967 RMK AO2A SLP059 4/030 T11231192 11123 21242 57014 $ COR 1803

Get Severe Weather Alerts

Thanks for signing up!

Be on the lookout for a verification email in your inbox.

You'll start receiving the daily forecast at 8 AM.

×

10-Day Weather Forecast

Almanac

Astronomy

Mar. 27, 2017 Rise Set
Actual Time
Civil Twilight
Nautical Twilight
Astronomical Twilight
Moon
Length of Visible Light
Length of Day
Tomorrow will be .
, % of the Moon is Illuminated

Today's Extremes

State Highs State Lows

Community

WunderPhotos

Upload Photos

1,962,540 photos uploaded!

WunderBlog® & News

Nearby

Air Quality

  Air Quality AQ Index Pollutant
Not available.

Snow Depth

Station Depth Elevation

Earthquake Activity

City Distance Mag. Time & Date
Minimum magnitude displayed is 2.5.

Earthquake Activity

City Distance Mag. Time & Date
Minimum magnitude displayed is 2.5.

Coastal Water Temperatures

Place Temperature

Stations

Nearby Weather Stations

Station Location Temp. Windchill Dew Point Humidity Wind Precip. Elev Updated Type
                   

Watches & Warnings

There are currently no watches in effect.